EST,Max TemperatureF,Mean TemperatureF,Min TemperatureF,Max Dew PointF,MeanDew PointF,Min DewpointF,Max Humidity, Mean Humidity, Min Humidity, Max Sea Level PressureIn, Mean Sea Level PressureIn, Min Sea Level PressureIn, Max VisibilityMiles, Mean VisibilityMiles, Min VisibilityMiles, Max Wind SpeedMPH, Mean Wind SpeedMPH, Max Gust SpeedMPH,PrecipitationIn, CloudCover, Events, WindDirDegrees
2010-11-1,37,32,28,28,24,21,81,69,56,30.45,30.37,30.22,10,10,10,13,5,16,0.00,4,,180
2010-11-2,44,34,24,27,23,19,93,70,43,30.47,30.43,30.32,10,10,10,9,2,,0.00,0,,80
2010-11-3,50,40,30,27,24,21,80,61,32,30.24,30.09,29.89,10,10,2,10,4,,0.00,0,,178
2010-11-4,39,38,37,36,34,30,87,83,70,29.80,29.68,29.57,10,10,9,9,5,,0.00,8,,231
2010-11-5,37,35,33,37,34,30,100,92,87,29.71,29.57,29.51,10,6,2,13,6,,0.20,8,,331
2010-11-6,39,34,30,30,29,23,93,83,56,30.23,30.10,29.92,10,9,0,10,3,,0.00,7,,8
2010-11-7,44,35,26,28,24,19,100,72,39,30.36,30.31,30.21,10,9,3,14,5,17,0.00,4,,219
2010-11-8,46,36,26,36,27,19,81,70,49,30.09,29.99,29.93,10,10,5,15,4,18,0.00,0,,341
2010-11-9,51,40,30,39,35,28,100,84,62,30.11,30.04,29.97,10,6,0,12,5,,0.00,3,,359
2010-11-10,53,44,35,39,35,28,100,78,38,30.27,30.21,30.13,10,6,0,13,7,,0.00,4,,50
2010-11-11,60,45,30,34,27,21,93,55,22,30.41,30.37,30.30,10,10,10,9,4,,0.00,0,,350
2010-11-12,64,50,37,32,24,19,61,40,19,30.42,30.38,30.31,10,10,10,8,5,,0.00,0,,154
2010-11-13,62,48,33,21,17,12,52,28,18,30.28,30.15,30.03,10,10,10,9,4,,0.00,0,,175
2010-11-14,51,45,37,45,31,18,93,60,30,30.00,29.93,29.88,10,9,5,14,9,21,0.01,6,,192
2010-11-15,46,38,30,30,28,23,93,71,40,30.02,29.99,29.95,10,8,2,10,5,,0.00,0,,201
2010-11-16,46,42,39,45,35,27,93,74,57,29.98,29.83,29.50,10,9,3,14,5,17,0.22,7,,117
2010-11-17,48,44,39,46,38,34,93,82,70,29.98,29.61,29.29,10,9,2,34,16,46,0.20,7,,249
2010-11-18,41,39,37,37,35,30,100,87,75,30.12,30.05,30.00,10,8,2,15,7,21,0.06,8,,271
2010-11-19,41,36,32,30,26,23,87,70,56,30.25,30.18,30.04,10,10,3,13,6,20,0.01,6,,239
2010-11-20,44,40,35,37,32,28,87,75,61,30.27,30.13,30.01,10,9,5,17,12,26,0.00,7,,261
2010-11-21,48,39,30,37,30,23,86,74,62,30.34,30.27,30.15,10,10,10,15,6,20,0.00,2,,135
2010-11-22,55,50,46,52,46,37,94,80,62,30.15,30.06,29.97,10,9,3,16,11,22,0.48,8,Thunderstorm,192
2010-11-23,57,45,32,50,39,21,94,73,54,30.13,29.90,29.80,10,10,5,23,13,32,0.07,6,Thunderstorm,238
2010-11-24,35,32,30,25,20,18,75,62,52,30.32,30.23,30.16,10,10,10,20,9,24,0.00,4,,13
2010-11-25,37,35,33,36,29,18,93,78,48,30.11,29.89,29.69,10,10,2,23,11,36,0.03,8,,157
2010-11-26,42,34,26,39,22,12,100,72,51,29.70,29.63,29.50,10,9,2,25,15,32,0.22,8,,238
2010-11-27,32,28,24,27,22,18,93,77,69,30.05,29.78,29.57,10,8,1,23,16,34,0.00,8,,256
2010-11-28,35,32,28,27,23,19,93,72,52,30.30,30.23,30.09,10,10,2,12,8,,0.01,5,,221
2010-11-29,42,34,26,25,22,19,80,61,42,30.34,30.28,30.17,10,10,10,16,8,21,0.00,0,,167
2010-11-30,51,43,35,50,40,27,100,85,65,30.13,29.93,29.67,10,10,6,20,13,30,0.41,8,,165